sensor_id;sensor_type;location;lat;lon;timestamp;P1;P2;P0
76421;PMS5003;65254;52.354;13.614;2023-04-15T00:00:00;19;17;
76421;PMS5003;65254;52.354;13.614;2023-04-15T00:04:01;20;18;
76421;PMS5003;65254;52.354;13.614;2023-04-15T00:08:01;21;19;
76421;PMS5003;65254;52.354;13.614;2023-04-15T00:12:01;20;18;
76421;PMS5003;65254;52.354;13.614;2023-04-15T00:16:01;21;19;
76421;PMS5003;65254;52.354;13.614;2023-04-15T00:20:00;21;19;
76421;PMS5003;65254;52.354;13.614;2023-04-15T00:24:00;21;19;
76421;PMS5003;65254;52.354;13.614;2023-04-15T00:28:00;21;19;
76421;PMS5003;65254;52.354;13.614;2023-04-15T00:32:00;21;19;
76421;PMS5003;65254;52.354;13.614;2023-04-15T00:36:01;21;19;
76421;PMS5003;65254;52.354;13.614;2023-04-15T00:40:00;21;19;
76421;PMS5003;65254;52.354;13.614;2023-04-15T00:44:00;22;20;
76421;PMS5003;65254;52.354;13.614;2023-04-15T00:48:01;23;21;
76421;PMS5003;65254;52.354;13.614;2023-04-15T00:52:00;22;20;
76421;PMS5003;65254;52.354;13.614;2023-04-15T00:56:00;22;20;
76421;PMS5003;65254;52.354;13.614;2023-04-15T01:00:01;21;19;
76421;PMS5003;65254;52.354;13.614;2023-04-15T01:04:01;23;21;
76421;PMS5003;65254;52.354;13.614;2023-04-15T01:08:01;23;21;
76421;PMS5003;65254;52.354;13.614;2023-04-15T01:12:01;24;22;
76421;PMS5003;65254;52.354;13.614;2023-04-15T01:16:01;24;22;
76421;PMS5003;65254;52.354;13.614;2023-04-15T01:20:01;24;22;
76421;PMS5003;65254;52.354;13.614;2023-04-15T01:24:01;23;21;
76421;PMS5003;65254;52.354;13.614;2023-04-15T01:28:00;24;22;
76421;PMS5003;65254;52.354;13.614;2023-04-15T01:32:00;25;22;
76421;PMS5003;65254;52.354;13.614;2023-04-15T01:36:00;25;22;
76421;PMS5003;65254;52.354;13.614;2023-04-15T01:40:01;26;23;
76421;PMS5003;65254;52.354;13.614;2023-04-15T01:44:01;26;23;
76421;PMS5003;65254;52.354;13.614;2023-04-15T01:48:00;23;21;
76421;PMS5003;65254;52.354;13.614;2023-04-15T01:52:00;24;22;
76421;PMS5003;65254;52.354;13.614;2023-04-15T01:56:00;26;23;
76421;PMS5003;65254;52.354;13.614;2023-04-15T02:00:00;24;22;
76421;PMS5003;65254;52.354;13.614;2023-04-15T02:04:00;24;22;
76421;PMS5003;65254;52.354;13.614;2023-04-15T02:08:00;25;22;
76421;PMS5003;65254;52.354;13.614;2023-04-15T02:12:00;24;21;
76421;PMS5003;65254;52.354;13.614;2023-04-15T02:16:02;26;23;
76421;PMS5003;65254;52.354;13.614;2023-04-15T02:20:01;26;23;
76421;PMS5003;65254;52.354;13.614;2023-04-15T02:24:00;24;22;
76421;PMS5003;65254;52.354;13.614;2023-04-15T02:28:00;26;23;
76421;PMS5003;65254;52.354;13.614;2023-04-15T02:32:00;23;21;
76421;PMS5003;65254;52.354;13.614;2023-04-15T02:36:00;26;23;
76421;PMS5003;65254;52.354;13.614;2023-04-15T02:40:00;26;23;
76421;PMS5003;65254;52.354;13.614;2023-04-15T02:44:00;23;21;
76421;PMS5003;65254;52.354;13.614;2023-04-15T02:48:00;25;22;
76421;PMS5003;65254;52.354;13.614;2023-04-15T02:52:00;25;22;
76421;PMS5003;65254;52.354;13.614;2023-04-15T02:56:00;22;20;
76421;PMS5003;65254;52.354;13.614;2023-04-15T03:00:01;23;21;
76421;PMS5003;65254;52.354;13.614;2023-04-15T03:04:00;22;20;
76421;PMS5003;65254;52.354;13.614;2023-04-15T03:08:00;22;20;
76421;PMS5003;65254;52.354;13.614;2023-04-15T03:12:00;23;21;
76421;PMS5003;65254;52.354;13.614;2023-04-15T03:16:00;23;21;
76421;PMS5003;65254;52.354;13.614;2023-04-15T03:20:01;23;21;
76421;PMS5003;65254;52.354;13.614;2023-04-15T03:24:00;22;20;
76421;PMS5003;65254;52.354;13.614;2023-04-15T03:28:00;23;20;
76421;PMS5003;65254;52.354;13.614;2023-04-15T03:32:00;23;21;
76421;PMS5003;65254;52.354;13.614;2023-04-15T03:36:00;23;21;
76421;PMS5003;65254;52.354;13.614;2023-04-15T03:40:01;22;20;
76421;PMS5003;65254;52.354;13.614;2023-04-15T03:44:00;21;19;
76421;PMS5003;65254;52.354;13.614;2023-04-15T03:48:10;21;19;
76421;PMS5003;65254;52.354;13.614;2023-04-15T03:52:00;21;19;
76421;PMS5003;65254;52.354;13.614;2023-04-15T03:56:00;22;20;
76421;PMS5003;65254;52.354;13.614;2023-04-15T04:00:00;22;20;
76421;PMS5003;65254;52.354;13.614;2023-04-15T04:04:00;22;20;
76421;PMS5003;65254;52.354;13.614;2023-04-15T04:08:00;21;19;
76421;PMS5003;65254;52.354;13.614;2023-04-15T04:12:00;22;20;
76421;PMS5003;65254;52.354;13.614;2023-04-15T04:16:01;21;19;
76421;PMS5003;65254;52.354;13.614;2023-04-15T04:20:00;20;18;
76421;PMS5003;65254;52.354;13.614;2023-04-15T04:24:01;21;19;
76421;PMS5003;65254;52.354;13.614;2023-04-15T04:28:00;20;18;
76421;PMS5003;65254;52.354;13.614;2023-04-15T04:32:00;21;19;
76421;PMS5003;65254;52.354;13.614;2023-04-15T04:36:00;20;18;
76421;PMS5003;65254;52.354;13.614;2023-04-15T04:40:00;21;19;
76421;PMS5003;65254;52.354;13.614;2023-04-15T04:44:00;20;18;
76421;PMS5003;65254;52.354;13.614;2023-04-15T04:48:01;20;18;
76421;PMS5003;65254;52.354;13.614;2023-04-15T04:52:00;19;17;
76421;PMS5003;65254;52.354;13.614;2023-04-15T04:56:00;19;17;
76421;PMS5003;65254;52.354;13.614;2023-04-15T05:00:00;19;17;
76421;PMS5003;65254;52.354;13.614;2023-04-15T05:04:01;19;17;
76421;PMS5003;65254;52.354;13.614;2023-04-15T05:08:00;18;16;
76421;PMS5003;65254;52.354;13.614;2023-04-15T05:12:00;17;15;
76421;PMS5003;65254;52.354;13.614;2023-04-15T05:16:00;18;16;
76421;PMS5003;65254;52.354;13.614;2023-04-15T05:20:01;17;15;
76421;PMS5003;65254;52.354;13.614;2023-04-15T05:24:00;15;14;
76421;PMS5003;65254;52.354;13.614;2023-04-15T05:28:00;17;15;
76421;PMS5003;65254;52.354;13.614;2023-04-15T05:32:00;18;16;
76421;PMS5003;65254;52.354;13.614;2023-04-15T05:36:00;17;15;
76421;PMS5003;65254;52.354;13.614;2023-04-15T05:40:00;15;14;
76421;PMS5003;65254;52.354;13.614;2023-04-15T05:44:00;17;15;
76421;PMS5003;65254;52.354;13.614;2023-04-15T05:48:00;15;14;
76421;PMS5003;65254;52.354;13.614;2023-04-15T05:52:00;17;15;
76421;PMS5003;65254;52.354;13.614;2023-04-15T05:56:00;15;14;
76421;PMS5003;65254;52.354;13.614;2023-04-15T06:00:00;15;14;
76421;PMS5003;65254;52.354;13.614;2023-04-15T06:04:00;14;13;
76421;PMS5003;65254;52.354;13.614;2023-04-15T06:08:00;13;12;
76421;PMS5003;65254;52.354;13.614;2023-04-15T06:12:01;14;13;
76421;PMS5003;65254;52.354;13.614;2023-04-15T06:16:00;14;13;
76421;PMS5003;65254;52.354;13.614;2023-04-15T06:20:00;14;13;
76421;PMS5003;65254;52.354;13.614;2023-04-15T06:24:00;15;14;
76421;PMS5003;65254;52.354;13.614;2023-04-15T06:28:00;14;13;
76421;PMS5003;65254;52.354;13.614;2023-04-15T06:32:01;14;13;
76421;PMS5003;65254;52.354;13.614;2023-04-15T06:36:00;16;14;
76421;PMS5003;65254;52.354;13.614;2023-04-15T06:40:00;14;13;
76421;PMS5003;65254;52.354;13.614;2023-04-15T06:44:00;15;14;
76421;PMS5003;65254;52.354;13.614;2023-04-15T06:48:01;14;13;
76421;PMS5003;65254;52.354;13.614;2023-04-15T06:52:01;14;13;
76421;PMS5003;65254;52.354;13.614;2023-04-15T06:56:00;14;13;
76421;PMS5003;65254;52.354;13.614;2023-04-15T07:00:00;13;12;
76421;PMS5003;65254;52.354;13.614;2023-04-15T07:04:00;14;13;
76421;PMS5003;65254;52.354;13.614;2023-04-15T07:08:00;13;12;
76421;PMS5003;65254;52.354;13.614;2023-04-15T07:12:00;13;12;
76421;PMS5003;65254;52.354;13.614;2023-04-15T07:16:00;15;14;
76421;PMS5003;65254;52.354;13.614;2023-04-15T07:20:00;14;13;
76421;PMS5003;65254;52.354;13.614;2023-04-15T07:24:00;17;15;
76421;PMS5003;65254;52.354;13.614;2023-04-15T07:28:00;15;14;
76421;PMS5003;65254;52.354;13.614;2023-04-15T07:32:00;14;13;
76421;PMS5003;65254;52.354;13.614;2023-04-15T07:36:00;15;14;
76421;PMS5003;65254;52.354;13.614;2023-04-15T07:40:01;13;12;
76421;PMS5003;65254;52.354;13.614;2023-04-15T07:44:00;14;13;
76421;PMS5003;65254;52.354;13.614;2023-04-15T07:48:01;15;14;
76421;PMS5003;65254;52.354;13.614;2023-04-15T07:52:00;17;15;
76421;PMS5003;65254;52.354;13.614;2023-04-15T07:56:00;17;15;
76421;PMS5003;65254;52.354;13.614;2023-04-15T08:00:00;17;15;
76421;PMS5003;65254;52.354;13.614;2023-04-15T08:04:01;15;14;
76421;PMS5003;65254;52.354;13.614;2023-04-15T08:08:00;16;14;
76421;PMS5003;65254;52.354;13.614;2023-04-15T08:12:00;17;15;
76421;PMS5003;65254;52.354;13.614;2023-04-15T08:16:12;16;14;
76421;PMS5003;65254;52.354;13.614;2023-04-15T08:20:00;17;15;
76421;PMS5003;65254;52.354;13.614;2023-04-15T08:24:00;17;15;
76421;PMS5003;65254;52.354;13.614;2023-04-15T08:28:03;17;15;
76421;PMS5003;65254;52.354;13.614;2023-04-15T08:32:01;18;16;
76421;PMS5003;65254;52.354;13.614;2023-04-15T08:36:00;18;16;
76421;PMS5003;65254;52.354;13.614;2023-04-15T08:40:00;18;16;
76421;PMS5003;65254;52.354;13.614;2023-04-15T08:44:03;17;15;
76421;PMS5003;65254;52.354;13.614;2023-04-15T08:48:03;17;15;
76421;PMS5003;65254;52.354;13.614;2023-04-15T08:52:01;19;17;
76421;PMS5003;65254;52.354;13.614;2023-04-15T08:56:04;17;15;
76421;PMS5003;65254;52.354;13.614;2023-04-15T09:00:04;16;14;
76421;PMS5003;65254;52.354;13.614;2023-04-15T09:04:02;18;16;
76421;PMS5003;65254;52.354;13.614;2023-04-15T09:08:01;15;14;
76421;PMS5003;65254;52.354;13.614;2023-04-15T09:12:00;18;16;
76421;PMS5003;65254;52.354;13.614;2023-04-15T09:16:01;15;14;
76421;PMS5003;65254;52.354;13.614;2023-04-15T09:20:10;17;15;
76421;PMS5003;65254;52.354;13.614;2023-04-15T09:24:01;14;13;
76421;PMS5003;65254;52.354;13.614;2023-04-15T09:28:01;14;13;
76421;PMS5003;65254;52.354;13.614;2023-04-15T09:32:09;14;13;
76421;PMS5003;65254;52.354;13.614;2023-04-15T09:36:02;14;13;
76421;PMS5003;65254;52.354;13.614;2023-04-15T09:40:00;14;13;
76421;PMS5003;65254;52.354;13.614;2023-04-15T09:44:01;15;14;
76421;PMS5003;65254;52.354;13.614;2023-04-15T09:48:14;14;13;
76421;PMS5003;65254;52.354;13.614;2023-04-15T09:52:06;14;13;
76421;PMS5003;65254;52.354;13.614;2023-04-15T09:56:01;13;12;
76421;PMS5003;65254;52.354;13.614;2023-04-15T10:00:01;14;13;
76421;PMS5003;65254;52.354;13.614;2023-04-15T10:04:03;13;12;
76421;PMS5003;65254;52.354;13.614;2023-04-15T10:08:00;12;11;
76421;PMS5003;65254;52.354;13.614;2023-04-15T10:12:01;13;12;
76421;PMS5003;65254;52.354;13.614;2023-04-15T10:16:04;13;12;
76421;PMS5003;65254;52.354;13.614;2023-04-15T10:20:02;13;12;
76421;PMS5003;65254;52.354;13.614;2023-04-15T10:24:02;11;10;
76421;PMS5003;65254;52.354;13.614;2023-04-15T10:28:01;13;12;
76421;PMS5003;65254;52.354;13.614;2023-04-15T10:32:01;12;11;
76421;PMS5003;65254;52.354;13.614;2023-04-15T10:36:00;12;11;
76421;PMS5003;65254;52.354;13.614;2023-04-15T10:44:02;13;12;
76421;PMS5003;65254;52.354;13.614;2023-04-15T10:48:06;14;13;
76421;PMS5003;65254;52.354;13.614;2023-04-15T10:52:00;13;12;
76421;PMS5003;65254;52.354;13.614;2023-04-15T10:56:03;13;12;
76421;PMS5003;65254;52.354;13.614;2023-04-15T11:00:10;12;11;
76421;PMS5003;65254;52.354;13.614;2023-04-15T11:04:00;12;11;
76421;PMS5003;65254;52.354;13.614;2023-04-15T11:08:00;13;12;
76421;PMS5003;65254;52.354;13.614;2023-04-15T11:12:05;13;12;
76421;PMS5003;65254;52.354;13.614;2023-04-15T11:16:01;13;12;
76421;PMS5003;65254;52.354;13.614;2023-04-15T11:20:00;12;11;
76421;PMS5003;65254;52.354;13.614;2023-04-15T11:24:03;13;12;
76421;PMS5003;65254;52.354;13.614;2023-04-15T11:28:01;12;11;
76421;PMS5003;65254;52.354;13.614;2023-04-15T11:32:04;12;11;
76421;PMS5003;65254;52.354;13.614;2023-04-15T11:36:00;12;11;
76421;PMS5003;65254;52.354;13.614;2023-04-15T11:40:01;17;15;
76421;PMS5003;65254;52.354;13.614;2023-04-15T11:44:00;12;11;
76421;PMS5003;65254;52.354;13.614;2023-04-15T11:48:05;12;11;
76421;PMS5003;65254;52.354;13.614;2023-04-15T11:52:00;12;11;
76421;PMS5003;65254;52.354;13.614;2023-04-15T11:56:00;11;10;
76421;PMS5003;65254;52.354;13.614;2023-04-15T12:00:00;11;10;
76421;PMS5003;65254;52.354;13.614;2023-04-15T12:04:01;12;11;
76421;PMS5003;65254;52.354;13.614;2023-04-15T12:08:00;12;11;
76421;PMS5003;65254;52.354;13.614;2023-04-15T12:12:00;11;10;
76421;PMS5003;65254;52.354;13.614;2023-04-15T12:16:02;11;10;
76421;PMS5003;65254;52.354;13.614;2023-04-15T12:20:00;11;10;
76421;PMS5003;65254;52.354;13.614;2023-04-15T12:24:02;10;9;
76421;PMS5003;65254;52.354;13.614;2023-04-15T12:28:00;10;9;
76421;PMS5003;65254;52.354;13.614;2023-04-15T12:32:04;10;9;
76421;PMS5003;65254;52.354;13.614;2023-04-15T12:36:00;11;10;
76421;PMS5003;65254;52.354;13.614;2023-04-15T12:40:00;11;10;
76421;PMS5003;65254;52.354;13.614;2023-04-15T12:44:00;11;10;
76421;PMS5003;65254;52.354;13.614;2023-04-15T12:48:00;10;9;
76421;PMS5003;65254;52.354;13.614;2023-04-15T12:52:02;10;9;
76421;PMS5003;65254;52.354;13.614;2023-04-15T12:56:00;10;9;
76421;PMS5003;65254;52.354;13.614;2023-04-15T13:00:00;9;8;
76421;PMS5003;65254;52.354;13.614;2023-04-15T13:04:01;10;9;
76421;PMS5003;65254;52.354;13.614;2023-04-15T13:08:00;10;9;
76421;PMS5003;65254;52.354;13.614;2023-04-15T13:12:00;10;9;
76421;PMS5003;65254;52.354;13.614;2023-04-15T13:16:00;11;10;
76421;PMS5003;65254;52.354;13.614;2023-04-15T13:20:00;9;8;
76421;PMS5003;65254;52.354;13.614;2023-04-15T13:24:00;10;9;
76421;PMS5003;65254;52.354;13.614;2023-04-15T13:28:00;10;9;
76421;PMS5003;65254;52.354;13.614;2023-04-15T13:32:00;10;9;
76421;PMS5003;65254;52.354;13.614;2023-04-15T13:36:00;10;9;
76421;PMS5003;65254;52.354;13.614;2023-04-15T13:40:00;9;8;
76421;PMS5003;65254;52.354;13.614;2023-04-15T13:44:00;10;9;
76421;PMS5003;65254;52.354;13.614;2023-04-15T13:48:00;10;9;
76421;PMS5003;65254;52.354;13.614;2023-04-15T13:52:00;10;9;
76421;PMS5003;65254;52.354;13.614;2023-04-15T13:56:00;11;10;
76421;PMS5003;65254;52.354;13.614;2023-04-15T14:00:01;10;9;
76421;PMS5003;65254;52.354;13.614;2023-04-15T14:04:01;11;10;
76421;PMS5003;65254;52.354;13.614;2023-04-15T14:08:00;11;10;
76421;PMS5003;65254;52.354;13.614;2023-04-15T14:12:00;11;10;
76421;PMS5003;65254;52.354;13.614;2023-04-15T14:16:00;10;9;
76421;PMS5003;65254;52.354;13.614;2023-04-15T14:20:00;10;9;
76421;PMS5003;65254;52.354;13.614;2023-04-15T14:24:00;10;9;
76421;PMS5003;65254;52.354;13.614;2023-04-15T14:28:01;10;9;
76421;PMS5003;65254;52.354;13.614;2023-04-15T14:32:10;11;10;
76421;PMS5003;65254;52.354;13.614;2023-04-15T14:36:00;11;10;
76421;PMS5003;65254;52.354;13.614;2023-04-15T14:40:01;11;10;
76421;PMS5003;65254;52.354;13.614;2023-04-15T14:44:00;11;10;
76421;PMS5003;65254;52.354;13.614;2023-04-15T14:48:00;11;10;
76421;PMS5003;65254;52.354;13.614;2023-04-15T14:52:00;10;9;
76421;PMS5003;65254;52.354;13.614;2023-04-15T14:56:00;10;9;
76421;PMS5003;65254;52.354;13.614;2023-04-15T15:00:01;9;8;
76421;PMS5003;65254;52.354;13.614;2023-04-15T15:04:00;10;9;
76421;PMS5003;65254;52.354;13.614;2023-04-15T15:08:00;10;9;
76421;PMS5003;65254;52.354;13.614;2023-04-15T15:12:00;10;9;
76421;PMS5003;65254;52.354;13.614;2023-04-15T15:16:01;9;8;
76421;PMS5003;65254;52.354;13.614;2023-04-15T15:20:00;10;9;
76421;PMS5003;65254;52.354;13.614;2023-04-15T15:24:00;10;9;
76421;PMS5003;65254;52.354;13.614;2023-04-15T15:28:00;10;9;
76421;PMS5003;65254;52.354;13.614;2023-04-15T15:32:00;9;8;
76421;PMS5003;65254;52.354;13.614;2023-04-15T15:36:00;10;9;
76421;PMS5003;65254;52.354;13.614;2023-04-15T15:40:00;10;9;
76421;PMS5003;65254;52.354;13.614;2023-04-15T15:44:00;10;9;
76421;PMS5003;65254;52.354;13.614;2023-04-15T15:48:01;9;8;
76421;PMS5003;65254;52.354;13.614;2023-04-15T15:52:00;10;9;
76421;PMS5003;65254;52.354;13.614;2023-04-15T15:56:00;7;7;
76421;PMS5003;65254;52.354;13.614;2023-04-15T16:00:11;7;7;
76421;PMS5003;65254;52.354;13.614;2023-04-15T16:04:01;9;8;
76421;PMS5003;65254;52.354;13.614;2023-04-15T16:08:00;9;8;
76421;PMS5003;65254;52.354;13.614;2023-04-15T16:12:00;9;8;
76421;PMS5003;65254;52.354;13.614;2023-04-15T16:16:00;9;8;
76421;PMS5003;65254;52.354;13.614;2023-04-15T16:20:01;10;9;
76421;PMS5003;65254;52.354;13.614;2023-04-15T16:24:01;9;8;
76421;PMS5003;65254;52.354;13.614;2023-04-15T16:28:10;10;9;
76421;PMS5003;65254;52.354;13.614;2023-04-15T16:32:01;9;8;
76421;PMS5003;65254;52.354;13.614;2023-04-15T16:36:00;8;7;
76421;PMS5003;65254;52.354;13.614;2023-04-15T16:40:00;9;8;
76421;PMS5003;65254;52.354;13.614;2023-04-15T16:44:01;9;8;
76421;PMS5003;65254;52.354;13.614;2023-04-15T16:48:01;7;7;
76421;PMS5003;65254;52.354;13.614;2023-04-15T16:52:00;9;8;
76421;PMS5003;65254;52.354;13.614;2023-04-15T16:56:00;9;8;
76421;PMS5003;65254;52.354;13.614;2023-04-15T17:00:00;9;8;
76421;PMS5003;65254;52.354;13.614;2023-04-15T17:04:00;11;10;
76421;PMS5003;65254;52.354;13.614;2023-04-15T17:08:00;10;9;
76421;PMS5003;65254;52.354;13.614;2023-04-15T17:12:01;9;8;
76421;PMS5003;65254;52.354;13.614;2023-04-15T17:16:00;9;8;
76421;PMS5003;65254;52.354;13.614;2023-04-15T17:20:00;7;7;
76421;PMS5003;65254;52.354;13.614;2023-04-15T17:24:00;7;7;
76421;PMS5003;65254;52.354;13.614;2023-04-15T17:28:00;9;8;
76421;PMS5003;65254;52.354;13.614;2023-04-15T17:32:00;7;7;
76421;PMS5003;65254;52.354;13.614;2023-04-15T17:36:00;8;7;
76421;PMS5003;65254;52.354;13.614;2023-04-15T17:40:01;7;7;
76421;PMS5003;65254;52.354;13.614;2023-04-15T17:44:00;7;7;
76421;PMS5003;65254;52.354;13.614;2023-04-15T17:48:01;9;8;
76421;PMS5003;65254;52.354;13.614;2023-04-15T17:52:00;10;9;
76421;PMS5003;65254;52.354;13.614;2023-04-15T17:56:00;9;8;
76421;PMS5003;65254;52.354;13.614;2023-04-15T18:00:00;9;8;
76421;PMS5003;65254;52.354;13.614;2023-04-15T18:04:01;10;9;
76421;PMS5003;65254;52.354;13.614;2023-04-15T18:08:00;9;8;
76421;PMS5003;65254;52.354;13.614;2023-04-15T18:12:01;11;10;
76421;PMS5003;65254;52.354;13.614;2023-04-15T18:16:00;11;10;
76421;PMS5003;65254;52.354;13.614;2023-04-15T18:20:00;12;11;
76421;PMS5003;65254;52.354;13.614;2023-04-15T18:24:00;11;10;
76421;PMS5003;65254;52.354;13.614;2023-04-15T18:28:00;9;8;
76421;PMS5003;65254;52.354;13.614;2023-04-15T18:32:01;10;9;
76421;PMS5003;65254;52.354;13.614;2023-04-15T18:36:00;11;10;
76421;PMS5003;65254;52.354;13.614;2023-04-15T18:40:01;11;10;
76421;PMS5003;65254;52.354;13.614;2023-04-15T18:44:00;11;10;
76421;PMS5003;65254;52.354;13.614;2023-04-15T18:48:01;11;10;
76421;PMS5003;65254;52.354;13.614;2023-04-15T18:52:00;11;10;
76421;PMS5003;65254;52.354;13.614;2023-04-15T18:56:00;11;10;
76421;PMS5003;65254;52.354;13.614;2023-04-15T19:00:00;12;11;
76421;PMS5003;65254;52.354;13.614;2023-04-15T19:04:00;11;10;
76421;PMS5003;65254;52.354;13.614;2023-04-15T19:08:01;11;10;
76421;PMS5003;65254;52.354;13.614;2023-04-15T19:12:00;11;10;
76421;PMS5003;65254;52.354;13.614;2023-04-15T19:16:00;15;14;
76421;PMS5003;65254;52.354;13.614;2023-04-15T19:20:00;12;11;
76421;PMS5003;65254;52.354;13.614;2023-04-15T19:24:00;10;9;
76421;PMS5003;65254;52.354;13.614;2023-04-15T19:28:00;11;10;
76421;PMS5003;65254;52.354;13.614;2023-04-15T19:32:00;11;10;
76421;PMS5003;65254;52.354;13.614;2023-04-15T19:36:02;11;10;
76421;PMS5003;65254;52.354;13.614;2023-04-15T19:40:00;12;11;
76421;PMS5003;65254;52.354;13.614;2023-04-15T19:44:00;12;11;
76421;PMS5003;65254;52.354;13.614;2023-04-15T19:48:00;12;11;
76421;PMS5003;65254;52.354;13.614;2023-04-15T19:52:00;13;12;
76421;PMS5003;65254;52.354;13.614;2023-04-15T19:56:00;12;11;
76421;PMS5003;65254;52.354;13.614;2023-04-15T20:00:00;10;9;
76421;PMS5003;65254;52.354;13.614;2023-04-15T20:04:01;11;10;
76421;PMS5003;65254;52.354;13.614;2023-04-15T20:08:01;11;10;
76421;PMS5003;65254;52.354;13.614;2023-04-15T20:12:10;10;9;
76421;PMS5003;65254;52.354;13.614;2023-04-15T20:16:00;10;9;
76421;PMS5003;65254;52.354;13.614;2023-04-15T20:20:01;7;7;
76421;PMS5003;65254;52.354;13.614;2023-04-15T20:24:00;9;8;
76421;PMS5003;65254;52.354;13.614;2023-04-15T20:28:01;9;8;
76421;PMS5003;65254;52.354;13.614;2023-04-15T20:32:00;9;8;
76421;PMS5003;65254;52.354;13.614;2023-04-15T20:36:00;7;7;
76421;PMS5003;65254;52.354;13.614;2023-04-15T20:40:00;6;6;
76421;PMS5003;65254;52.354;13.614;2023-04-15T20:44:00;7;7;
76421;PMS5003;65254;52.354;13.614;2023-04-15T20:48:00;9;8;
76421;PMS5003;65254;52.354;13.614;2023-04-15T20:52:01;10;9;
76421;PMS5003;65254;52.354;13.614;2023-04-15T20:56:00;10;9;
76421;PMS5003;65254;52.354;13.614;2023-04-15T21:00:00;10;9;
76421;PMS5003;65254;52.354;13.614;2023-04-15T21:04:00;7;7;
76421;PMS5003;65254;52.354;13.614;2023-04-15T21:08:00;12;11;
76421;PMS5003;65254;52.354;13.614;2023-04-15T21:12:02;9;8;
76421;PMS5003;65254;52.354;13.614;2023-04-15T21:16:00;10;9;
76421;PMS5003;65254;52.354;13.614;2023-04-15T21:20:01;7;7;
76421;PMS5003;65254;52.354;13.614;2023-04-15T21:24:01;7;7;
76421;PMS5003;65254;52.354;13.614;2023-04-15T21:28:00;6;6;
76421;PMS5003;65254;52.354;13.614;2023-04-15T21:32:00;5;5;
76421;PMS5003;65254;52.354;13.614;2023-04-15T21:36:00;6;6;
76421;PMS5003;65254;52.354;13.614;2023-04-15T21:40:01;7;7;
76421;PMS5003;65254;52.354;13.614;2023-04-15T21:44:01;6;6;
76421;PMS5003;65254;52.354;13.614;2023-04-15T21:48:07;5;5;
76421;PMS5003;65254;52.354;13.614;2023-04-15T21:52:00;5;5;
76421;PMS5003;65254;52.354;13.614;2023-04-15T21:56:00;5;5;
76421;PMS5003;65254;52.354;13.614;2023-04-15T22:00:00;5;5;
76421;PMS5003;65254;52.354;13.614;2023-04-15T22:04:01;4;4;
76421;PMS5003;65254;52.354;13.614;2023-04-15T22:08:00;4;4;
76421;PMS5003;65254;52.354;13.614;2023-04-15T22:12:02;5;5;
76421;PMS5003;65254;52.354;13.614;2023-04-15T22:16:00;5;5;
76421;PMS5003;65254;52.354;13.614;2023-04-15T22:20:00;4;4;
76421;PMS5003;65254;52.354;13.614;2023-04-15T22:24:10;4;4;
76421;PMS5003;65254;52.354;13.614;2023-04-15T22:28:00;5;5;
76421;PMS5003;65254;52.354;13.614;2023-04-15T22:32:00;5;5;
76421;PMS5003;65254;52.354;13.614;2023-04-15T22:36:00;5;5;
76421;PMS5003;65254;52.354;13.614;2023-04-15T22:40:00;6;6;
76421;PMS5003;65254;52.354;13.614;2023-04-15T22:44:00;5;5;
76421;PMS5003;65254;52.354;13.614;2023-04-15T22:48:00;9;8;
76421;PMS5003;65254;52.354;13.614;2023-04-15T22:52:00;9;8;
76421;PMS5003;65254;52.354;13.614;2023-04-15T22:56:00;7;7;
76421;PMS5003;65254;52.354;13.614;2023-04-15T23:00:01;7;7;
76421;PMS5003;65254;52.354;13.614;2023-04-15T23:04:08;7;7;
76421;PMS5003;65254;52.354;13.614;2023-04-15T23:08:00;6;6;
76421;PMS5003;65254;52.354;13.614;2023-04-15T23:12:01;5;5;
76421;PMS5003;65254;52.354;13.614;2023-04-15T23:16:00;5;5;
76421;PMS5003;65254;52.354;13.614;2023-04-15T23:20:00;5;5;
76421;PMS5003;65254;52.354;13.614;2023-04-15T23:24:00;5;5;
76421;PMS5003;65254;52.354;13.614;2023-04-15T23:28:00;5;5;
76421;PMS5003;65254;52.354;13.614;2023-04-15T23:32:00;5;5;
76421;PMS5003;65254;52.354;13.614;2023-04-15T23:36:00;5;5;
76421;PMS5003;65254;52.354;13.614;2023-04-15T23:40:00;4;4;
76421;PMS5003;65254;52.354;13.614;2023-04-15T23:44:00;5;5;
76421;PMS5003;65254;52.354;13.614;2023-04-15T23:48:00;4;4;
76421;PMS5003;65254;52.354;13.614;2023-04-15T23:52:00;4;4;
76421;PMS5003;65254;52.354;13.614;2023-04-15T23:56:00;4;4;
